Tainan, Taiwan

10:55 PM CST on January 26, 2015 (GMT +0800)
SFSH_WeatherStation | Change Station
CLOSE
Current Station
Personal Weather Station
Location: Tainan City, TAIWAN
Elevation: 66 ft
Nearby Weather Stations

Elev 66 ft 22.97 °N, 120.30 °E | Updated 2 seconds ago

Mostly Cloudy
Mostly Cloudy
64.6 °F
Feels Like 64.6 °F
N
3.0
Wind Variable Wind from North
Gusts 5.0 mph

Today
High -- | Low -- °F
--% Chance of Precip.
Yesterday
High -- | Low -- °F
Precip. -- in
6:40 AM 5:42 PM
Waxing Crescent, 44% visible
Pressure 30.04 in
Visibility -9999.0 miles
Clouds Few 1300 ft
Scattered Clouds 6000 ft
Mostly Cloudy 9000 ft
Dew Point 61 °F
Humidity 89%
Rainfall 0.00 in
Snow Depth Not available.
UV 0.0 out of 12
Pollen Not available.
Air Quality Not available.
Flu Activity Not available.
METAR RCKH 261430Z 35006KT 310V050 4200 BR FEW013 SCT060 BKN090 20/17 Q1017 NOSIG RMK A3005

More Conditions Fewer Conditions

Pressure 30.04 in
Visibility -9999.0 miles
Clouds Few 1300 ft
Scattered Clouds 6000 ft
Mostly Cloudy 9000 ft
Dew Point 61 °F
Humidity 89%
Rainfall 0.00 in
Snow Depth Not available.
UV 0.0 out of 12
Pollen Not available.
Air Quality Not available.
Flu Activity Not available.
METAR RCKH 261430Z 35006KT 310V050 4200 BR FEW013 SCT060 BKN090 20/17 Q1017 NOSIG RMK A3005

More Conditions Fewer Conditions

10-Day Weather Forecast

Almanac

Astronomy

Jan. 26, 2015 Rise Set
Actual Time
Civil Twilight
Nautical Twilight
Astronomical Twilight
Moon
Length of Visible Light
Length of Day
Tomorrow will be .
, % of the Moon is Illuminated

Today's Extremes

Country Highs Country Lows

Community

WunderPhotos

Upload Photos

1,790,226 photos uploaded!

WunderBlogs® & News

Nearby

Air Quality

  Air Quality AQ Index Pollutant
Not available.

Snow Depth

Station Depth Elevation

Earthquake Activity

City Distance Mag. Time & Date
Minimum magnitude displayed is 2.5.

Coastal Water Temperatures

Place Temperature

Nearby Weather Stations